Time;durP1;ratioP1;P1;durP2;ratioP2;P2;SDS_P1;SDS_P2;PMS_P1;PMS_P2;Temp;Humidity;BMP_temperature;BMP_pressure;BME280_temperature;BME280_humidity;BME280_pressure;Samples;Min_cycle;Max_cycle;Signal;HPM_P1;HPM_P2
2022/03/21 00:00:27;;;;;;;8.37;4.80;;;16.10;76.70;;;;;;2028581;28;20215;-75
2022/03/21 00:01:27;;;;;;;8.18;4.25;;;16.10;76.80;;;;;;2028444;28;20297;-74
2022/03/21 00:02:26;;;;;;;7.82;3.95;;;16.20;77.40;;;;;;2028535;28;20613;-75
2022/03/21 00:03:28;;;;;;;8.57;4.43;;;16.10;76.80;;;;;;2027711;28;20190;-74
2022/03/21 00:04:27;;;;;;;7.15;4.40;;;16.10;77.60;;;;;;2027659;28;20167;-75
2022/03/21 00:05:25;;;;;;;8.83;5.67;;;16.10;77.10;;;;;;2028585;28;20604;-76
2022/03/21 00:06:24;;;;;;;6.53;4.50;;;16.10;77.60;;;;;;2028514;28;20171;-74
2022/03/21 00:07:23;;;;;;;5.60;4.00;;;16.10;77.30;;;;;;2028404;28;20203;-74
2022/03/21 00:08:22;;;;;;;7.65;3.90;;;16.10;77.30;;;;;;2028500;28;20179;-74
2022/03/21 00:09:21;;;;;;;9.80;4.57;;;16.10;77.40;;;;;;2028497;28;20183;-75
2022/03/21 00:10:19;;;;;;;8.93;4.40;;;16.10;77.40;;;;;;2028548;28;20409;-74
2022/03/21 00:11:18;;;;;;;4.93;3.70;;;16.10;76.80;;;;;;2027789;28;20277;-75
2022/03/21 00:12:18;;;;;;;6.50;4.15;;;16.00;75.90;;;;;;2027787;28;20187;-74
2022/03/21 00:13:18;;;;;;;7.50;3.92;;;16.10;76.80;;;;;;2028441;28;20248;-74
2022/03/21 00:14:16;;;;;;;10.15;4.00;;;16.10;77.20;;;;;;2028427;28;20624;-74
2022/03/21 00:15:15;;;;;;;6.20;3.87;;;16.00;77.40;;;;;;2027858;28;20177;-74
2022/03/21 00:16:14;;;;;;;10.15;4.88;;;16.10;77.20;;;;;;2027849;28;20167;-74
2022/03/21 00:17:13;;;;;;;7.00;4.67;;;16.00;77.10;;;;;;2027885;28;20167;-75
2022/03/21 00:18:16;;;;;;;6.97;4.63;;;16.10;76.80;;;;;;2027909;28;20175;-73
2022/03/21 00:19:14;;;;;;;10.27;4.57;;;16.10;77.10;;;;;;2028276;28;20258;-75
2022/03/21 00:20:15;;;;;;;9.57;3.83;;;16.00;76.90;;;;;;2028492;28;20171;-74
2022/03/21 00:21:13;;;;;;;7.25;4.63;;;16.10;76.00;;;;;;2028380;28;20171;-74
2022/03/21 00:22:12;;;;;;;10.23;4.50;;;16.00;76.10;;;;;;2028529;28;20228;-74
2022/03/21 00:23:12;;;;;;;5.95;3.95;;;16.00;75.90;;;;;;2028561;28;20544;-74
2022/03/21 00:24:11;;;;;;;7.93;4.38;;;16.00;76.00;;;;;;2028629;28;20182;-75
2022/03/21 00:25:09;;;;;;;5.90;4.07;;;16.00;76.00;;;;;;2028396;28;20247;-74
2022/03/21 00:26:08;;;;;;;6.73;4.07;;;16.00;75.90;;;;;;2028437;28;20268;-75
2022/03/21 00:27:12;;;;;;;11.53;4.00;;;16.10;75.90;;;;;;2028506;28;20186;-74
2022/03/21 00:28:12;;;;;;;6.90;4.82;;;15.90;75.70;;;;;;2028616;28;20246;-76
2022/03/21 00:29:10;;;;;;;6.85;4.63;;;16.00;76.20;;;;;;2028404;28;20219;-74
2022/03/21 00:30:09;;;;;;;6.73;4.53;;;16.00;76.20;;;;;;2028533;28;20658;-74
2022/03/21 00:31:07;;;;;;;7.23;4.30;;;16.00;76.20;;;;;;2028264;28;20199;-75
2022/03/21 00:32:07;;;;;;;5.50;4.03;;;16.00;75.70;;;;;;2027860;28;20465;-73
2022/03/21 00:33:06;;;;;;;7.57;3.90;;;16.00;76.20;;;;;;2028092;28;20179;-74
2022/03/21 00:34:04;;;;;;;9.67;5.23;;;16.00;76.40;;;;;;2028639;28;20289;-75
2022/03/21 00:35:05;;;;;;;5.87;4.27;;;16.00;75.80;;;;;;2028545;28;20750;-74
2022/03/21 00:36:08;;;;;;;7.22;4.43;;;16.00;76.10;;;;;;2028531;28;20201;-74
2022/03/21 00:37:07;;;;;;;7.13;4.35;;;16.00;75.90;;;;;;2028569;28;20616;-74
2022/03/21 00:38:06;;;;;;;7.00;4.07;;;16.00;75.80;;;;;;2028421;28;20263;-74
2022/03/21 00:39:05;;;;;;;4.77;3.57;;;16.00;76.10;;;;;;2028296;28;20654;-73
2022/03/21 00:40:08;;;;;;;8.20;4.65;;;16.00;76.20;;;;;;2028579;28;20270;-74
2022/03/21 00:41:07;;;;;;;6.72;4.30;;;16.00;76.80;;;;;;2028558;28;20179;-74
2022/03/21 00:42:06;;;;;;;7.80;4.83;;;16.00;76.30;;;;;;2028127;28;20190;-74
2022/03/21 00:43:08;;;;;;;7.03;4.47;;;16.00;76.20;;;;;;2028408;28;20428;-74
2022/03/21 00:44:07;;;;;;;9.13;4.78;;;16.00;77.10;;;;;;2027837;28;20897;-76
2022/03/21 00:45:12;;;;;;;7.40;4.47;;;16.00;75.90;;;;;;2027860;28;20175;-76
2022/03/21 00:46:11;;;;;;;7.50;4.28;;;16.00;76.30;;;;;;2028447;28;20417;-74
2022/03/21 00:47:11;;;;;;;9.80;4.47;;;16.00;76.00;;;;;;2028424;28;20194;-74
2022/03/21 00:48:11;;;;;;;5.50;4.07;;;16.00;76.00;;;;;;2028025;28;20620;-74
2022/03/21 00:49:12;;;;;;;5.55;4.15;;;16.00;76.30;;;;;;2028653;28;20186;-75
2022/03/21 00:50:15;;;;;;;12.43;4.80;;;16.00;76.10;;;;;;2028953;28;20608;-75
2022/03/21 00:51:14;;;;;;;6.03;3.60;;;16.00;76.30;;;;;;2028610;28;20596;-75
2022/03/21 00:52:12;;;;;;;5.93;4.33;;;16.00;76.10;;;;;;2028650;28;20199;-75
2022/03/21 00:53:11;;;;;;;8.00;4.50;;;16.00;76.10;;;;;;2028675;28;20537;-74
2022/03/21 00:54:09;;;;;;;7.33;4.23;;;16.00;76.10;;;;;;2028629;28;20243;-74
2022/03/21 00:55:09;;;;;;;8.07;4.90;;;15.90;76.20;;;;;;2028659;28;20221;-74
2022/03/21 00:56:07;;;;;;;6.88;4.10;;;15.90;76.50;;;;;;2028594;28;20170;-73
2022/03/21 00:57:06;;;;;;;5.87;3.70;;;16.00;76.30;;;;;;2028963;28;20550;-74
2022/03/21 00:58:04;;;;;;;7.50;3.70;;;16.00;76.40;;;;;;2028608;28;20579;-75
2022/03/21 00:59:04;;;;;;;6.40;4.20;;;15.90;76.20;;;;;;2028757;28;20163;-74
2022/03/21 01:00:05;;;;;;;10.98;4.13;;;16.00;76.60;;;;;;2028299;28;20175;-74
2022/03/21 01:01:04;;;;;;;7.65;4.80;;;15.90;76.60;;;;;;2028277;28;20175;-75
2022/03/21 01:02:02;;;;;;;5.20;4.30;;;15.90;76.60;;;;;;2028896;28;20368;-74
2022/03/21 01:03:02;;;;;;;8.23;4.70;;;16.00;76.60;;;;;;2028929;28;20175;-74
2022/03/21 01:04:00;;;;;;;7.53;4.50;;;15.90;76.70;;;;;;2029001;28;20174;-75
2022/03/21 01:05:00;;;;;;;10.23;4.83;;;15.90;76.60;;;;;;2028306;28;20171;-74
2022/03/21 01:05:59;;;;;;;5.85;4.05;;;15.90;76.90;;;;;;2028331;28;20251;-74
2022/03/21 01:06:57;;;;;;;8.53;4.83;;;15.90;76.50;;;;;;2028414;28;20167;-75
2022/03/21 01:07:58;;;;;;;6.13;3.87;;;15.90;76.80;;;;;;2028306;28;20250;-74
2022/03/21 01:08:56;;;;;;;6.47;4.25;;;16.00;77.00;;;;;;2028423;28;20628;-75
2022/03/21 01:09:55;;;;;;;6.20;3.57;;;15.90;76.60;;;;;;2028296;28;20545;-74
2022/03/21 01:10:53;;;;;;;5.50;4.00;;;15.90;76.70;;;;;;2028108;28;20171;-74
2022/03/21 01:11:53;;;;;;;6.37;4.43;;;15.90;76.80;;;;;;2027564;28;20187;-75
2022/03/21 01:12:52;;;;;;;8.07;4.35;;;15.90;76.60;;;;;;2027681;28;20675;-74
2022/03/21 01:13:51;;;;;;;5.63;3.88;;;15.90;76.60;;;;;;2027992;28;20183;-74
2022/03/21 01:14:49;;;;;;;8.50;4.80;;;15.90;76.90;;;;;;2028262;28;20167;-76
2022/03/21 01:15:48;;;;;;;4.57;3.70;;;15.90;76.50;;;;;;2028653;28;20203;-74
2022/03/21 01:16:46;;;;;;;6.80;4.30;;;15.90;76.50;;;;;;2029570;28;20545;-75
2022/03/21 01:17:46;;;;;;;5.57;3.53;;;15.90;76.70;;;;;;2029662;28;20659;-75
2022/03/21 01:18:47;;;;;;;6.38;4.32;;;15.90;76.80;;;;;;2029730;28;20556;-74
2022/03/21 01:19:47;;;;;;;5.85;4.07;;;16.10;77.10;;;;;;2030015;28;20167;-74
2022/03/21 01:20:47;;;;;;;5.88;4.38;;;16.00;77.70;;;;;;2029972;28;20232;-75
2022/03/21 01:21:46;;;;;;;5.78;3.75;;;15.90;76.60;;;;;;2029729;28;20259;-74
2022/03/21 01:22:47;;;;;;;7.50;4.47;;;16.00;76.60;;;;;;2029907;28;20631;-74
2022/03/21 01:23:45;;;;;;;5.15;4.00;;;15.90;77.30;;;;;;2029186;28;20163;-75
2022/03/21 01:24:45;;;;;;;5.40;4.10;;;15.90;76.80;;;;;;2029382;28;20220;-75
2022/03/21 01:25:43;;;;;;;7.00;4.10;;;15.90;77.90;;;;;;2029828;28;20440;-76
2022/03/21 01:26:42;;;;;;;6.33;3.73;;;15.90;76.40;;;;;;2029307;28;20540;-75
2022/03/21 01:27:42;;;;;;;8.50;3.97;;;15.90;76.60;;;;;;2029503;28;20155;-74
2022/03/21 01:28:43;;;;;;;6.13;3.80;;;15.90;77.10;;;;;;2030163;28;20637;-73
2022/03/21 01:29:41;;;;;;;4.63;3.60;;;15.90;77.40;;;;;;2029663;28;20562;-75
2022/03/21 01:30:40;;;;;;;7.93;4.20;;;15.80;76.90;;;;;;2029667;28;20258;-75
2022/03/21 01:31:39;;;;;;;6.30;4.00;;;15.80;76.80;;;;;;2029788;28;20209;-75
2022/03/21 01:32:43;;;;;;;6.67;4.20;;;15.80;77.00;;;;;;2029943;28;20576;-75
2022/03/21 01:33:41;;;;;;;4.93;3.60;;;15.80;76.90;;;;;;2029199;28;20635;-73
2022/03/21 01:34:41;;;;;;;6.30;4.23;;;15.90;77.50;;;;;;2029365;28;20179;-74
2022/03/21 01:35:39;;;;;;;6.55;4.20;;;15.90;77.10;;;;;;2029978;28;20199;-74
2022/03/21 01:36:38;;;;;;;5.80;4.23;;;15.90;77.10;;;;;;2029230;28;20175;-75
2022/03/21 01:37:37;;;;;;;7.13;3.83;;;15.90;77.00;;;;;;2029402;28;20202;-74
2022/03/21 01:38:35;;;;;;;6.53;4.27;;;15.80;77.20;;;;;;2029849;28;20409;-74
2022/03/21 01:39:34;;;;;;;5.70;4.10;;;15.90;77.00;;;;;;2030210;28;20167;-75
2022/03/21 01:40:33;;;;;;;10.90;4.67;;;15.90;77.10;;;;;;2029958;28;20163;-76
2022/03/21 01:41:31;;;;;;;6.53;4.30;;;15.90;77.40;;;;;;2029684;28;20260;-74
2022/03/21 01:42:30;;;;;;;6.20;4.20;;;15.90;77.30;;;;;;2029988;28;20255;-74
2022/03/21 01:43:29;;;;;;;4.57;3.57;;;15.80;77.30;;;;;;2029968;28;20232;-74
2022/03/21 01:44:28;;;;;;;5.53;3.67;;;15.80;77.20;;;;;;2030000;28;20175;-74
2022/03/21 01:45:28;;;;;;;5.90;3.57;;;15.80;77.10;;;;;;2030688;28;20193;-75
2022/03/21 01:46:28;;;;;;;5.95;4.20;;;15.90;78.10;;;;;;2030646;28;20167;-75
2022/03/21 01:47:27;;;;;;;4.93;4.00;;;15.90;77.20;;;;;;2030256;28;20251;-75
2022/03/21 01:48:25;;;;;;;6.83;4.33;;;15.90;77.10;;;;;;2030263;28;20232;-75
2022/03/21 01:49:25;;;;;;;6.77;4.57;;;15.90;77.50;;;;;;2030113;28;20252;-75
2022/03/21 01:50:23;;;;;;;6.05;3.72;;;15.90;77.60;;;;;;2030501;28;20636;-75
2022/03/21 01:51:24;;;;;;;6.50;3.87;;;15.90;77.60;;;;;;2030329;28;20199;-75
2022/03/21 01:52:22;;;;;;;5.55;3.80;;;15.80;77.60;;;;;;2029991;28;20776;-74
2022/03/21 01:55:58;;;;;;;6.47;4.38;;;15.80;77.80;;;;;;2029964;28;20538;-74
2022/03/21 01:56:57;;;;;;;6.32;4.25;;;15.80;77.80;;;;;;2029673;28;20333;-74
2022/03/21 01:57:58;;;;;;;5.70;3.47;;;15.80;77.70;;;;;;2029815;28;20335;-74
2022/03/21 01:58:57;;;;;;;7.60;4.00;;;15.90;78.20;;;;;;2029965;28;20225;-74
2022/03/21 01:59:57;;;;;;;4.97;4.03;;;15.80;77.90;;;;;;2029834;28;20171;-74
2022/03/21 02:00:55;;;;;;;7.10;4.25;;;15.90;78.10;;;;;;2029127;28;20405;-74
2022/03/21 02:01:54;;;;;;;5.10;3.93;;;15.90;78.00;;;;;;2029013;28;20198;-74
2022/03/21 02:02:52;;;;;;;6.50;4.00;;;15.90;78.10;;;;;;2029651;28;20167;-74
2022/03/21 02:03:51;;;;;;;7.17;4.20;;;15.80;78.00;;;;;;2029892;28;20297;-75
2022/03/21 02:04:50;;;;;;;4.07;3.50;;;15.80;78.00;;;;;;2029126;28;20168;-75
2022/03/21 02:05:48;;;;;;;10.80;4.57;;;15.80;78.30;;;;;;2029093;28;20417;-73
2022/03/21 02:06:48;;;;;;;6.70;4.40;;;15.80;78.40;;;;;;2029460;28;20171;-74
2022/03/21 02:07:47;;;;;;;7.30;4.35;;;15.80;78.50;;;;;;2029762;28;20662;-74
2022/03/21 02:08:46;;;;;;;6.40;4.30;;;15.80;78.60;;;;;;2029757;28;20175;-74
2022/03/21 02:09:45;;;;;;;6.03;4.40;;;15.90;78.60;;;;;;2029304;28;20175;-74
2022/03/21 02:10:43;;;;;;;5.23;3.80;;;15.90;79.40;;;;;;2029292;28;20221;-74
2022/03/21 02:11:43;;;;;;;7.73;4.40;;;15.80;78.70;;;;;;2028537;28;20985;-74
2022/03/21 02:12:42;;;;;;;5.53;4.25;;;15.80;79.00;;;;;;2029227;28;20413;-74
2022/03/21 02:13:41;;;;;;;8.32;4.20;;;15.80;79.10;;;;;;2029495;28;20167;-74
2022/03/21 02:14:41;;;;;;;7.70;4.67;;;15.90;79.40;;;;;;2029029;28;20258;-74
2022/03/21 02:15:40;;;;;;;8.30;4.80;;;15.80;79.20;;;;;;2028907;28;20456;-73
2022/03/21 02:16:39;;;;;;;8.97;4.27;;;15.80;79.20;;;;;;2029437;28;20210;-74
2022/03/21 02:17:42;;;;;;;9.48;3.95;;;15.80;80.00;;;;;;2029184;28;20420;-75
2022/03/21 02:18:44;;;;;;;6.45;3.70;;;15.80;79.80;;;;;;2029402;28;20159;-73
2022/03/21 02:19:45;;;;;;;5.43;4.00;;;15.80;80.40;;;;;;2029322;28;20560;-74
2022/03/21 02:20:44;;;;;;;7.30;4.30;;;15.90;79.90;;;;;;2029064;28;20211;-75
2022/03/21 02:22:03;;;;;;;5.22;3.75;;;15.80;80.20;;;;;;2029257;28;20203;-74
2022/03/21 02:23:29;;;;;;;4.90;4.03;;;15.90;81.50;;;;;;2029551;28;20191;-75
2022/03/21 02:24:47;;;;;;;4.45;3.45;;;15.80;80.00;;;;;;2029391;28;20160;-74
2022/03/21 02:25:47;;;;;;;6.35;4.28;;;15.80;80.10;;;;;;2028544;28;20167;-74
2022/03/21 02:26:46;;;;;;;5.20;3.63;;;15.70;80.40;;;;;;2028219;28;20170;-76
2022/03/21 02:27:48;;;;;;;10.23;4.80;;;15.80;80.50;;;;;;2029216;28;20199;-74
2022/03/21 02:28:49;;;;;;;5.65;3.95;;;15.80;80.90;;;;;;2029195;28;20160;-75
2022/03/21 02:29:48;;;;;;;6.70;4.30;;;15.80;80.90;;;;;;2029038;28;20263;-74
2022/03/21 02:30:48;;;;;;;5.22;3.85;;;15.80;80.60;;;;;;2029118;28;20548;-75
2022/03/21 02:31:49;;;;;;;5.35;3.90;;;15.80;80.90;;;;;;2028391;28;20201;-74
2022/03/21 02:32:48;;;;;;;5.55;3.70;;;15.80;80.60;;;;;;2028774;28;20258;-74
2022/03/21 02:33:48;;;;;;;6.40;4.18;;;15.70;80.50;;;;;;2029293;28;20163;-73
2022/03/21 02:34:48;;;;;;;6.22;4.05;;;15.80;80.50;;;;;;2029298;28;20228;-74
2022/03/21 02:35:49;;;;;;;6.70;4.20;;;15.80;80.80;;;;;;2028550;28;20266;-75
2022/03/21 02:36:50;;;;;;;7.75;4.88;;;15.70;80.90;;;;;;2028719;28;20244;-74
2022/03/21 02:37:48;;;;;;;6.53;4.03;;;15.80;81.20;;;;;;2029086;28;20182;-74
2022/03/21 02:38:48;;;;;;;5.37;4.07;;;15.80;80.60;;;;;;2029193;28;20199;-74
2022/03/21 02:39:49;;;;;;;8.23;4.88;;;15.80;80.50;;;;;;2029058;28;20405;-74
2022/03/21 02:40:48;;;;;;;6.75;4.38;;;15.80;81.00;;;;;;2028520;28;20190;-74
2022/03/21 02:41:49;;;;;;;6.78;3.95;;;15.70;79.70;;;;;;2028305;28;20159;-75
2022/03/21 02:42:49;;;;;;;4.72;3.33;;;15.80;81.20;;;;;;2029155;28;20180;-75
2022/03/21 02:43:57;;;;;;;8.10;4.35;;;15.80;79.80;;;;;;2028569;28;20187;-74
2022/03/21 02:44:56;;;;;;;8.93;4.38;;;15.80;80.10;;;;;;2028651;28;20229;-74
2022/03/21 02:46:05;;;;;;;4.72;3.65;;;15.70;80.10;;;;;;2029191;28;20516;-74
2022/03/21 02:47:05;;;;;;;6.70;3.90;;;15.70;80.30;;;;;;2028730;28;20187;-74
2022/03/21 02:48:04;;;;;;;6.60;4.13;;;15.70;80.30;;;;;;2028531;28;20167;-74
2022/03/21 02:49:03;;;;;;;7.70;4.80;;;15.70;80.10;;;;;;2028164;28;20237;-75
2022/03/21 02:50:02;;;;;;;6.07;3.07;;;15.70;79.60;;;;;;2028470;28;20229;-74
2022/03/21 02:51:02;;;;;;;6.15;4.38;;;15.80;79.80;;;;;;2028813;28;20405;-74
2022/03/21 02:52:04;;;;;;;7.18;4.10;;;15.70;79.70;;;;;;2028873;28;20240;-76
2022/03/21 02:53:05;;;;;;;6.68;4.38;;;15.70;80.20;;;;;;2029125;28;20636;-74
2022/03/21 02:54:04;;;;;;;7.22;4.00;;;15.70;80.10;;;;;;2028036;28;20229;-74
2022/03/21 02:55:04;;;;;;;11.57;3.87;;;15.80;80.10;;;;;;2028399;28;20183;-73
2022/03/21 02:56:02;;;;;;;6.28;4.50;;;15.70;81.10;;;;;;2028855;28;20168;-73
2022/03/21 02:57:02;;;;;;;5.27;3.70;;;15.70;80.50;;;;;;2029051;28;20178;-75
2022/03/21 02:58:02;;;;;;;4.72;3.45;;;15.70;80.50;;;;;;2029069;28;20163;-75
2022/03/21 02:59:01;;;;;;;10.18;4.68;;;15.70;80.10;;;;;;2028898;28;20174;-74
2022/03/21 03:00:00;;;;;;;4.80;3.67;;;15.70;80.00;;;;;;2028529;28;20690;-74
2022/03/21 03:01:12;;;;;;;7.20;3.70;;;15.70;80.50;;;;;;2028249;28;20257;-74
2022/03/21 03:02:11;;;;;;;6.45;3.83;;;15.70;80.50;;;;;;2028913;28;20421;-74
2022/03/21 03:03:09;;;;;;;6.40;4.33;;;15.70;80.40;;;;;;2028977;28;20175;-74
2022/03/21 03:04:08;;;;;;;5.97;3.80;;;15.70;80.20;;;;;;2028188;28;20175;-75
2022/03/21 03:05:07;;;;;;;5.80;4.03;;;15.70;81.60;;;;;;2028221;28;20179;-75
2022/03/21 03:06:06;;;;;;;5.70;4.23;;;15.70;81.50;;;;;;2028931;28;20444;-75
2022/03/21 03:07:05;;;;;;;4.57;3.70;;;15.70;81.70;;;;;;2028856;28;20413;-76
2022/03/21 03:08:04;;;;;;;8.10;3.90;;;15.70;81.00;;;;;;2028877;28;20175;-73
2022/03/21 03:09:03;;;;;;;6.50;4.47;;;15.80;82.10;;;;;;2028147;28;20198;-75
2022/03/21 03:10:02;;;;;;;7.20;4.50;;;15.70;80.20;;;;;;2028337;28;20195;-74
2022/03/21 03:11:01;;;;;;;7.05;4.57;;;15.70;80.50;;;;;;2028747;28;20171;-75
2022/03/21 03:12:00;;;;;;;4.97;3.83;;;15.70;80.40;;;;;;2028151;28;20646;-74
2022/03/21 03:13:00;;;;;;;6.28;4.10;;;15.70;80.20;;;;;;2028305;28;20625;-74
2022/03/21 03:13:58;;;;;;;5.85;3.95;;;15.70;80.10;;;;;;2028885;28;20267;-74
2022/03/21 03:14:56;;;;;;;5.60;4.37;;;15.70;80.40;;;;;;2028749;28;20178;-74
2022/03/21 03:15:55;;;;;;;4.00;3.20;;;15.70;80.80;;;;;;2028875;28;20595;-74
2022/03/21 03:16:56;;;;;;;8.13;3.63;;;15.70;81.00;;;;;;2028884;28;20212;-75
2022/03/21 03:17:54;;;;;;;10.73;3.95;;;15.70;81.70;;;;;;2028813;28;20167;-74
2022/03/21 03:18:52;;;;;;;5.17;3.83;;;15.70;82.40;;;;;;2028810;28;20183;-75
2022/03/21 03:19:51;;;;;;;4.80;3.93;;;15.60;80.70;;;;;;2028301;28;20175;-75
2022/03/21 03:20:54;;;;;;;7.87;4.07;;;15.70;82.20;;;;;;2028239;28;20624;-76
2022/03/21 03:21:54;;;;;;;8.50;4.18;;;15.60;82.90;;;;;;2028557;28;20729;-75
2022/03/21 03:22:53;;;;;;;6.07;4.20;;;15.70;83.40;;;;;;2028200;28;20197;-75
2022/03/21 03:23:52;;;;;;;4.65;3.53;;;15.70;82.60;;;;;;2028205;28;20401;-75
2022/03/21 03:24:52;;;;;;;5.75;3.97;;;15.70;82.40;;;;;;2028847;28;20640;-74
2022/03/21 03:25:58;;;;;;;4.10;3.55;;;15.70;82.40;;;;;;2028714;28;20182;-75
2022/03/21 03:26:57;;;;;;;6.20;4.15;;;15.70;82.30;;;;;;2028833;28;20148;-75
2022/03/21 03:27:55;;;;;;;6.70;4.30;;;15.70;81.60;;;;;;2029170;28;20216;-75
2022/03/21 03:28:54;;;;;;;4.70;3.97;;;15.70;81.30;;;;;;2028905;28;20182;-74
2022/03/21 03:29:55;;;;;;;8.23;4.00;;;15.70;81.40;;;;;;2028946;28;20191;-75
2022/03/21 03:30:55;;;;;;;6.07;4.15;;;15.70;83.30;;;;;;2028441;28;20228;-74
2022/03/21 03:31:54;;;;;;;5.55;3.75;;;15.70;81.50;;;;;;2028307;28;20197;-74
2022/03/21 03:32:53;;;;;;;6.80;4.37;;;15.60;81.20;;;;;;2028826;28;20643;-75
2022/03/21 03:33:51;;;;;;;7.60;3.80;;;15.60;82.00;;;;;;2028934;28;20182;-75
2022/03/21 03:34:50;;;;;;;8.23;4.40;;;15.60;81.80;;;;;;2028860;28;20159;-75
2022/03/21 03:35:49;;;;;;;6.70;3.67;;;15.60;81.80;;;;;;2028734;28;20402;-74
2022/03/21 03:36:48;;;;;;;5.30;4.27;;;15.60;81.60;;;;;;2028699;28;20217;-74
2022/03/21 03:37:46;;;;;;;5.57;3.50;;;15.60;81.60;;;;;;2028896;28;20173;-74
2022/03/21 03:38:48;;;;;;;6.03;3.90;;;15.60;81.60;;;;;;2028026;28;20177;-74
2022/03/21 03:39:46;;;;;;;5.75;4.18;;;15.70;82.60;;;;;;2028939;28;20182;-75
2022/03/21 03:40:45;;;;;;;5.77;4.00;;;15.70;81.70;;;;;;2027957;28;20202;-75
2022/03/21 03:41:43;;;;;;;5.00;3.17;;;15.60;82.10;;;;;;2028042;28;20163;-75
2022/03/21 03:42:42;;;;;;;7.33;4.00;;;15.60;83.00;;;;;;2028594;28;20254;-74
2022/03/21 03:43:43;;;;;;;6.53;4.43;;;15.60;83.30;;;;;;2028741;28;20246;-74
2022/03/21 03:44:42;;;;;;;6.82;3.85;;;;;;;;;;2028690;28;20189;-75
2022/03/21 03:45:41;;;;;;;5.10;3.13;;;;;;;;;;2028817;28;20182;-74
2022/03/21 03:46:40;;;;;;;5.50;4.20;;;;;;;;;;2028595;28;20210;-74
2022/03/21 03:47:38;;;;;;;5.25;4.30;;;15.50;90.30;;;;;;2028579;28;20493;-74
2022/03/21 03:48:38;;;;;;;6.70;4.07;;;15.60;83.00;;;;;;2028062;28;20211;-74
2022/03/21 03:49:37;;;;;;;5.53;3.60;;;15.60;82.80;;;;;;2027916;28;20217;-74
2022/03/21 03:50:35;;;;;;;5.40;3.53;;;15.60;82.90;;;;;;2028461;28;20179;-75
2022/03/21 03:51:35;;;;;;;7.07;4.17;;;15.60;83.30;;;;;;2028397;28;20199;-74
2022/03/21 03:52:33;;;;;;;5.50;4.05;;;15.60;83.80;;;;;;2028097;28;20171;-74
2022/03/21 03:53:33;;;;;;;3.87;3.43;;;15.60;85.30;;;;;;2028256;28;20254;-74
2022/03/21 03:54:31;;;;;;;8.50;4.18;;;15.60;86.10;;;;;;2027964;28;20167;-74
2022/03/21 03:55:30;;;;;;;5.60;3.60;;;15.60;85.70;;;;;;2028162;28;20536;-76
2022/03/21 03:56:28;;;;;;;5.40;3.57;;;15.60;86.20;;;;;;2028896;28;20619;-75
2022/03/21 03:57:27;;;;;;;7.00;4.77;;;15.50;86.00;;;;;;2028804;28;20533;-75
2022/03/21 03:58:25;;;;;;;6.20;4.07;;;15.50;85.30;;;;;;2028689;28;20175;-76
2022/03/21 03:59:24;;;;;;;6.37;4.07;;;15.60;85.10;;;;;;2028580;28;20543;-74
2022/03/21 04:00:22;;;;;;;5.50;3.70;;;15.60;85.00;;;;;;2028027;28;20221;-75
2022/03/21 04:01:22;;;;;;;6.30;4.50;;;15.60;85.20;;;;;;2028152;28;20587;-76
2022/03/21 04:02:21;;;;;;;6.35;3.90;;;15.50;85.10;;;;;;2028610;28;20283;-75
2022/03/21 04:04:36;;;;;;;6.90;4.40;;;15.60;83.70;;;;;;2028602;28;20159;-75
2022/03/21 04:05:35;;;;;;;7.10;4.40;;;15.60;83.30;;;;;;2028473;28;20179;-75
2022/03/21 04:06:35;;;;;;;6.60;3.70;;;15.60;84.20;;;;;;2028554;28;20744;-75
2022/03/21 04:07:33;;;;;;;5.57;3.42;;;15.60;85.10;;;;;;2028428;28;20316;-75
2022/03/21 04:08:32;;;;;;;5.63;3.87;;;15.50;85.00;;;;;;2027947;28;20182;-75
2022/03/21 04:09:31;;;;;;;11.70;4.03;;;;;;;;;;2027944;28;20192;-75
2022/03/21 04:10:30;;;;;;;6.57;4.30;;;15.40;88.30;;;;;;2028547;28;20194;-75
2022/03/21 04:11:29;;;;;;;7.00;3.80;;;15.60;87.60;;;;;;2028569;28;20195;-75
2022/03/21 04:12:27;;;;;;;6.77;4.00;;;15.50;86.00;;;;;;2028525;28;20170;-76
2022/03/21 04:13:27;;;;;;;4.57;4.00;;;15.60;85.90;;;;;;2028678;28;20178;-75
2022/03/21 04:14:26;;;;;;;5.60;4.13;;;15.60;86.90;;;;;;2028595;28;20167;-76
2022/03/21 04:15:24;;;;;;;5.80;4.23;;;15.50;87.60;;;;;;2028577;28;20700;-75
2022/03/21 04:16:23;;;;;;;6.20;3.90;;;15.60;86.40;;;;;;2028559;28;20173;-74
2022/03/21 04:17:21;;;;;;;6.60;4.30;;;15.50;85.10;;;;;;2028740;28;20195;-74
2022/03/21 04:18:20;;;;;;;6.57;3.90;;;15.60;83.90;;;;;;2028657;28;20195;-76
2022/03/21 04:19:18;;;;;;;4.77;3.70;;;15.50;83.70;;;;;;2028293;28;20714;-75
2022/03/21 04:20:17;;;;;;;5.30;4.10;;;15.60;83.20;;;;;;2028709;28;20179;-74
2022/03/21 04:21:16;;;;;;;6.23;4.30;;;15.50;82.60;;;;;;2028340;28;20488;-75
2022/03/21 04:22:14;;;;;;;5.83;3.67;;;15.60;82.50;;;;;;2027980;28;20199;-75
2022/03/21 04:23:13;;;;;;;5.80;3.83;;;15.50;82.10;;;;;;2028017;28;20209;-75
2022/03/21 04:24:11;;;;;;;7.53;4.53;;;15.70;81.80;;;;;;2028769;28;20206;-75
2022/03/21 04:25:10;;;;;;;5.80;4.43;;;15.50;81.40;;;;;;2027813;28;20179;-75
2022/03/21 04:26:12;;;;;;;4.67;4.00;;;15.60;81.30;;;;;;2027757;28;20674;-75
2022/03/21 04:27:10;;;;;;;6.20;3.88;;;15.50;81.00;;;;;;2028619;28;20197;-75
2022/03/21 04:28:10;;;;;;;4.47;3.90;;;15.50;80.80;;;;;;2028052;28;20201;-75
2022/03/21 04:29:08;;;;;;;5.35;4.18;;;15.60;80.60;;;;;;2027810;28;20191;-75
2022/03/21 04:30:09;;;;;;;9.80;5.20;;;15.50;80.20;;;;;;2028529;28;20262;-75
2022/03/21 04:31:07;;;;;;;6.72;4.30;;;15.50;80.90;;;;;;2027705;28;20190;-75
2022/03/21 04:32:06;;;;;;;4.57;4.07;;;15.50;79.80;;;;;;2027828;28;20206;-75
2022/03/21 04:33:05;;;;;;;6.10;4.27;;;15.50;79.80;;;;;;2028367;28;20167;-75
2022/03/21 04:34:04;;;;;;;7.00;4.57;;;15.50;79.40;;;;;;2028421;28;20175;-75
2022/03/21 04:35:03;;;;;;;6.70;4.60;;;15.60;79.50;;;;;;2028540;28;20413;-76
2022/03/21 04:36:02;;;;;;;6.32;4.05;;;15.50;79.50;;;;;;2028418;28;20647;-74
2022/03/21 04:37:00;;;;;;;5.50;4.17;;;15.50;79.30;;;;;;2028508;28;20167;-75
2022/03/21 04:37:59;;;;;;;6.90;3.77;;;15.50;79.10;;;;;;2028654;28;20401;-75
2022/03/21 04:38:57;;;;;;;6.60;4.47;;;15.50;79.00;;;;;;2028301;28;20696;-74
2022/03/21 04:39:56;;;;;;;6.90;4.23;;;15.50;79.20;;;;;;2028595;28;20175;-75
2022/03/21 04:40:55;;;;;;;9.13;3.83;;;15.70;79.30;;;;;;2028508;28;20213;-74
2022/03/21 04:41:54;;;;;;;5.63;3.93;;;15.40;78.90;;;;;;2028069;28;20425;-74
2022/03/21 04:42:52;;;;;;;6.47;4.03;;;15.50;79.00;;;;;;2028319;28;20437;-75
2022/03/21 04:43:51;;;;;;;6.47;3.80;;;15.50;79.10;;;;;;2028411;28;20163;-75
2022/03/21 04:44:50;;;;;;;4.67;3.57;;;15.50;78.90;;;;;;2028474;28;20524;-76
2022/03/21 04:45:49;;;;;;;6.60;3.53;;;15.50;79.20;;;;;;2028472;28;20166;-74
2022/03/21 04:46:47;;;;;;;6.17;3.33;;;15.70;79.20;;;;;;2028421;28;20536;-74
2022/03/21 04:47:46;;;;;;;6.57;4.37;;;15.50;78.80;;;;;;2028353;28;20171;-75
2022/03/21 04:48:45;;;;;;;5.23;4.20;;;15.50;78.70;;;;;;2028290;28;20175;-75
2022/03/21 04:49:44;;;;;;;5.70;4.10;;;15.50;78.70;;;;;;2028455;28;20522;-74
2022/03/21 04:50:43;;;;;;;6.47;4.15;;;15.50;78.70;;;;;;2029227;28;20540;-75
2022/03/21 04:51:42;;;;;;;5.03;3.42;;;15.50;78.80;;;;;;2029259;28;20195;-75
2022/03/21 04:52:41;;;;;;;5.63;4.03;;;15.50;78.70;;;;;;2029864;28;20171;-74
2022/03/21 04:53:39;;;;;;;6.43;4.00;;;15.50;78.60;;;;;;2029814;28;20171;-75
2022/03/21 04:54:39;;;;;;;7.33;4.70;;;15.50;78.60;;;;;;2029910;28;20254;-74
2022/03/21 04:55:41;;;;;;;5.43;3.88;;;15.50;78.80;;;;;;2029876;28;20544;-74
2022/03/21 04:56:40;;;;;;;7.32;3.67;;;15.50;79.60;;;;;;2030024;28;20286;-75
2022/03/21 04:57:38;;;;;;;4.57;3.87;;;15.50;78.30;;;;;;2030026;28;20167;-75
2022/03/21 04:58:38;;;;;;;4.43;3.30;;;15.50;78.50;;;;;;2029955;28;20239;-76
2022/03/21 04:59:37;;;;;;;5.45;4.50;;;15.50;79.70;;;;;;2029888;28;20525;-74
2022/03/21 05:00:37;;;;;;;6.33;4.10;;;15.50;78.40;;;;;;2029247;28;20178;-75
2022/03/21 05:01:36;;;;;;;5.38;4.15;;;15.40;78.50;;;;;;2029301;28;20171;-74
2022/03/21 05:02:35;;;;;;;5.05;3.92;;;15.50;78.50;;;;;;2029871;28;20535;-76
2022/03/21 05:03:33;;;;;;;5.67;3.67;;;15.50;78.90;;;;;;2029463;28;20179;-75
2022/03/21 05:04:34;;;;;;;7.80;4.60;;;15.40;78.30;;;;;;2029221;28;20179;-75
2022/03/21 05:05:36;;;;;;;6.10;4.05;;;15.50;78.70;;;;;;2029205;28;20707;-74
2022/03/21 05:06:35;;;;;;;6.68;4.05;;;15.50;79.50;;;;;;2029109;28;20182;-75
2022/03/21 05:07:41;;;;;;;4.93;3.43;;;15.40;78.40;;;;;;2029278;28;20654;-76
2022/03/21 05:08:40;;;;;;;4.78;3.40;;;15.40;78.60;;;;;;2029234;28;20176;-75
2022/03/21 05:09:41;;;;;;;5.47;3.90;;;15.40;78.50;;;;;;2029191;28;20631;-75
2022/03/21 05:10:40;;;;;;;6.47;4.30;;;15.50;78.70;;;;;;2029975;28;20174;-74
2022/03/21 05:11:40;;;;;;;7.03;4.53;;;15.50;78.70;;;;;;2029701;28;20544;-74
2022/03/21 05:12:38;;;;;;;7.03;3.90;;;15.50;78.90;;;;;;2029701;28;20171;-75
2022/03/21 05:13:39;;;;;;;9.47;4.27;;;15.50;78.50;;;;;;2029018;28;20669;-74
2022/03/21 05:14:38;;;;;;;4.38;3.55;;;15.50;79.00;;;;;;2029207;28;20175;-76